Time;durP1;ratioP1;P1;durP2;ratioP2;P2;SDS_P1;SDS_P2;PMS_P1;PMS_P2;Temp;Humidity;BMP_temperature;BMP_pressure;BME280_temperature;BME280_humidity;BME280_pressure;Samples;Min_cycle;Max_cycle;Signal;HPM_P1;HPM_P2
2020/12/21 00:00:14;;;;;;;73.80;34.93;;;;;;;3.72;80.16;102240.80;127791;1093;104426;-74
2020/12/21 00:03:04;;;;;;;72.50;33.37;;;;;;;3.66;80.12;102244.53;127817;1091;104410;-72
2020/12/21 00:05:33;;;;;;;76.87;35.57;;;;;;;3.63;79.55;102252.97;127785;1091;104475;-72
2020/12/21 00:08:03;;;;;;;75.27;33.33;;;;;;;3.65;80.42;102255.70;127776;1092;104410;-73
2020/12/21 00:10:32;;;;;;;68.97;32.17;;;;;;;3.66;80.36;102245.46;127799;1091;104414;-72
2020/12/21 00:13:01;;;;;;;78.57;34.47;;;;;;;3.67;79.85;102244.67;127819;1091;104407;-72
2020/12/21 00:15:30;;;;;;;71.53;34.00;;;;;;;3.64;80.22;102244.39;127769;1092;104449;-72
2020/12/21 00:17:59;;;;;;;74.17;32.43;;;;;;;3.60;79.69;102248.39;127815;1091;104541;-72
2020/12/21 00:20:28;;;;;;;73.43;33.17;;;;;;;3.56;80.43;102248.88;127795;1091;104897;-72
2020/12/21 00:22:57;;;;;;;77.17;35.00;;;;;;;3.57;80.60;102240.33;127844;1091;104411;-73
2020/12/21 00:25:25;;;;;;;69.43;32.57;;;;;;;3.59;80.43;102238.77;127831;1092;104452;-72
2020/12/21 00:27:54;;;;;;;73.67;33.50;;;;;;;3.63;80.47;102246.84;127822;1092;104538;-72
2020/12/21 00:30:23;;;;;;;70.83;33.33;;;;;;;3.64;80.20;102248.68;127830;1091;104439;-72
2020/12/21 00:32:52;;;;;;;71.40;34.57;;;;;;;3.66;80.34;102244.53;127793;1091;104416;-72
2020/12/21 00:35:21;;;;;;;73.97;34.53;;;;;;;3.66;80.27;102242.86;127788;1091;104442;-72
2020/12/21 00:37:50;;;;;;;74.97;35.67;;;;;;;3.68;79.95;102249.09;127797;1091;104539;-73
2020/12/21 00:40:19;;;;;;;71.47;33.20;;;;;;;3.67;80.60;102246.36;127811;1091;104404;-72
2020/12/21 00:42:48;;;;;;;77.87;35.40;;;;;;;3.62;80.34;102250.23;127798;1091;104490;-72
2020/12/21 00:45:17;;;;;;;74.27;34.37;;;;;;;3.61;79.58;102246.70;127762;1091;104628;-72
2020/12/21 00:47:46;;;;;;;73.43;33.00;;;;;;;3.62;80.42;102247.63;127814;1092;104410;-73
2020/12/21 00:50:15;;;;;;;78.40;37.73;;;;;;;3.67;80.34;102242.07;127824;1092;104422;-73
2020/12/21 00:52:44;;;;;;;82.07;37.63;;;;;;;3.72;80.50;102245.09;127842;1091;104420;-72
2020/12/21 00:55:13;;;;;;;79.30;36.90;;;;;;;3.77;80.73;102244.75;127832;1091;104433;-72
2020/12/21 00:57:42;;;;;;;70.97;34.97;;;;;;;3.74;80.21;102233.14;127797;1091;104420;-72
2020/12/21 01:00:11;;;;;;;76.60;38.17;;;;;;;3.73;80.55;102236.53;127845;1091;104414;-73
2020/12/21 01:02:40;;;;;;;74.70;35.90;;;;;;;3.69;79.83;102234.42;127821;1092;104497;-72
2020/12/21 01:05:09;;;;;;;80.67;38.67;;;;;;;3.69;80.22;102240.52;127830;1091;104497;-72
2020/12/21 01:07:38;;;;;;;78.50;36.55;;;;;;;3.70;80.54;102233.66;127800;1091;104406;-72
2020/12/21 01:10:07;;;;;;;75.63;35.10;;;;;;;3.73;79.94;102227.05;127769;1091;104535;-73
2020/12/21 01:12:36;;;;;;;69.20;32.67;;;;;;;3.79;80.64;102226.70;127830;1091;104430;-72
2020/12/21 01:15:05;;;;;;;65.90;31.53;;;;;;;3.83;79.90;102231.38;127806;1091;104421;-72
2020/12/21 01:17:34;;;;;;;62.80;30.43;;;;;;;3.87;80.63;102224.80;127770;1092;104410;-73
2020/12/21 01:20:04;;;;;;;58.87;28.40;;;;;;;3.88;80.34;102216.22;127824;1092;104407;-73
2020/12/21 01:22:33;;;;;;;59.70;26.63;;;;;;;3.89;80.13;102213.76;127722;1092;104417;-74
2020/12/21 01:25:02;;;;;;;58.90;26.37;;;;;;;3.92;80.66;102218.33;127734;1091;104484;-74
2020/12/21 01:27:31;;;;;;;47.80;23.03;;;;;;;3.91;80.69;102213.90;127738;1092;104515;-76
2020/12/21 01:30:00;;;;;;;59.13;25.80;;;;;;;3.91;80.05;102214.83;127747;1091;104872;-75
2020/12/21 01:32:29;;;;;;;54.53;22.80;;;;;;;3.94;80.62;102209.91;127764;1092;104423;-76
2020/12/21 01:34:58;;;;;;;52.13;23.87;;;;;;;4.01;80.18;102218.26;127749;1091;104499;-74
2020/12/21 01:37:27;;;;;;;48.67;22.77;;;;;;;4.06;80.19;102219.57;127703;1092;104398;-72
2020/12/21 01:39:56;;;;;;;50.53;23.40;;;;;;;4.10;80.14;102213.89;127741;1092;104510;-72
2020/12/21 01:42:25;;;;;;;53.87;24.87;;;;;;;4.10;79.89;102221.68;127801;1091;104545;-71
2020/12/21 01:44:54;;;;;;;52.47;24.60;;;;;;;4.10;79.95;102214.78;127815;1091;104634;-71
2020/12/21 01:47:24;;;;;;;54.83;24.67;;;;;;;4.10;80.10;102219.08;127808;1091;104407;-71
2020/12/21 01:49:53;;;;;;;54.00;25.00;;;;;;;4.09;80.15;102222.44;127774;1091;104429;-73
2020/12/21 01:52:22;;;;;;;50.10;23.80;;;;;;;4.06;80.54;102223.06;127758;1091;104414;-72
2020/12/21 01:54:51;;;;;;;47.70;21.63;;;;;;;4.05;80.13;102228.12;127721;1092;104494;-73
2020/12/21 01:57:20;;;;;;;48.95;23.50;;;;;;;4.07;79.70;102224.91;127974;1092;104855;-74
2020/12/21 01:59:49;;;;;;;53.33;24.80;;;;;;;4.11;79.95;102220.88;127782;1091;104420;-74
2020/12/21 02:02:18;;;;;;;48.87;22.30;;;;;;;4.15;80.34;102222.98;127840;1092;104407;-74
2020/12/21 02:04:47;;;;;;;48.10;22.70;;;;;;;4.18;79.92;102218.06;127747;1091;104417;-74
2020/12/21 02:07:16;;;;;;;52.07;25.67;;;;;;;4.16;79.79;102214.43;127839;1091;104481;-72
2020/12/21 02:09:45;;;;;;;57.10;28.93;;;;;;;4.17;80.22;102220.53;127822;1091;104474;-72
2020/12/21 02:12:14;;;;;;;64.10;31.70;;;;;;;4.10;79.75;102219.08;127762;1091;104416;-74
2020/12/21 02:14:43;;;;;;;66.83;31.77;;;;;;;4.03;79.67;102217.59;127807;1091;104637;-74
2020/12/21 02:17:12;;;;;;;72.83;31.70;;;;;;;3.92;79.54;102223.52;127813;1091;104414;-74
2020/12/21 02:19:41;;;;;;;64.60;29.63;;;;;;;3.84;79.79;102222.83;127809;1092;104413;-74
2020/12/21 02:22:11;;;;;;;64.97;28.97;;;;;;;3.77;79.48;102217.84;127831;1092;104501;-73
2020/12/21 02:24:41;;;;;;;63.93;30.13;;;;;;;3.72;80.18;102213.93;127800;1092;104410;-72
2020/12/21 02:27:11;;;;;;;59.37;28.57;;;;;;;3.72;79.50;102216.53;127812;1092;104410;-71
2020/12/21 02:29:40;;;;;;;62.03;27.47;;;;;;;3.69;80.34;102206.77;127829;1091;104468;-71
2020/12/21 02:32:09;;;;;;;62.80;28.13;;;;;;;3.69;80.27;102211.95;127818;1091;104404;-71
2020/12/21 02:34:38;;;;;;;62.77;29.33;;;;;;;3.68;79.96;102211.85;127794;1091;104567;-72
2020/12/21 02:37:07;;;;;;;62.03;28.87;;;;;;;3.67;80.50;102210.02;127772;1091;104673;-73
2020/12/21 02:39:36;;;;;;;54.80;26.53;;;;;;;3.64;79.98;102210.64;127824;1091;104499;-71
2020/12/21 02:42:04;;;;;;;61.67;28.03;;;;;;;3.60;80.56;102199.07;127769;1092;104420;-73
2020/12/21 02:44:33;;;;;;;59.53;27.07;;;;;;;3.56;80.44;102207.34;127721;1092;104430;-73
2020/12/21 02:47:02;;;;;;;62.50;27.83;;;;;;;3.54;79.70;102203.70;127784;1091;104411;-73
2020/12/21 02:49:31;;;;;;;55.63;27.13;;;;;;;3.55;80.17;102205.54;127796;1092;105074;-73
2020/12/21 02:52:00;;;;;;;68.20;29.80;;;;;;;3.56;79.76;102206.44;127825;1091;104410;-73
2020/12/21 02:54:29;;;;;;;63.33;28.13;;;;;;;3.53;80.28;102200.97;127765;1091;104459;-73
2020/12/21 02:56:58;;;;;;;67.63;31.30;;;;;;;3.52;80.42;102197.47;127825;1091;104538;-73
2020/12/21 02:59:27;;;;;;;66.53;30.57;;;;;;;3.52;79.91;102199.13;127788;1092;104410;-72
2020/12/21 03:01:56;;;;;;;60.45;28.65;;;;;;;3.49;80.04;102204.98;127806;1092;105033;-71
2020/12/21 03:04:25;;;;;;;61.27;28.93;;;;;;;3.45;80.47;102197.67;127820;1091;104414;-72
2020/12/21 03:06:54;;;;;;;58.93;27.07;;;;;;;3.44;80.23;102198.43;127805;1091;104429;-72
2020/12/21 03:09:22;;;;;;;57.67;26.37;;;;;;;3.43;80.18;102196.63;127831;1091;104413;-72
2020/12/21 03:11:51;;;;;;;62.03;28.17;;;;;;;3.44;80.46;102189.75;127820;1092;104481;-73
2020/12/21 03:14:20;;;;;;;57.67;27.00;;;;;;;3.45;79.67;102192.48;127762;1092;104513;-72
2020/12/21 03:16:49;;;;;;;57.93;27.27;;;;;;;3.47;79.60;102196.12;127849;1092;104404;-72
2020/12/21 03:19:19;;;;;;;56.77;26.93;;;;;;;3.46;79.95;102191.72;127836;1092;104403;-72
2020/12/21 03:21:48;;;;;;;55.53;26.60;;;;;;;3.44;80.08;102188.05;127836;1092;104532;-75
2020/12/21 03:24:17;;;;;;;55.50;26.35;;;;;;;3.41;80.68;102191.30;127805;1091;104545;-73
2020/12/21 03:26:46;;;;;;;57.15;26.45;;;;;;;3.39;79.62;102186.73;127780;1091;104410;-72
2020/12/21 03:29:17;;;;;;;61.50;27.17;;;;;;;3.38;80.17;102182.30;127813;1091;104538;-72
2020/12/21 03:31:46;;;;;;;58.50;27.27;;;;;;;3.41;80.27;102185.17;127767;1092;104468;-72
2020/12/21 03:34:16;;;;;;;57.63;27.40;;;;;;;3.41;80.60;102186.11;127792;1093;104604;-72
2020/12/21 03:36:45;;;;;;;64.17;29.93;;;;;;;3.43;80.25;102183.66;127827;1092;104423;-72
2020/12/21 03:39:14;;;;;;;65.80;32.03;;;;;;;3.42;79.73;102181.82;127798;1091;104435;-73
2020/12/21 03:41:43;;;;;;;66.27;30.07;;;;;;;3.42;80.37;102184.41;127833;1091;104414;-72
2020/12/21 03:44:12;;;;;;;63.93;29.73;;;;;;;3.39;80.70;102178.94;127805;1091;104462;-72
2020/12/21 03:46:40;;;;;;;67.53;30.40;;;;;;;3.34;79.61;102186.31;127841;1091;104413;-73
2020/12/21 03:49:09;;;;;;;62.77;27.93;;;;;;;3.33;80.29;102181.88;127810;1091;104547;-73
2020/12/21 03:51:38;;;;;;;62.13;28.90;;;;;;;3.33;80.29;102180.98;127820;1091;104535;-73
2020/12/21 03:54:07;;;;;;;64.10;29.00;;;;;;;3.36;80.39;102187.34;127824;1091;104401;-72
2020/12/21 03:56:37;;;;;;;59.40;28.95;;;;;;;3.38;80.58;102179.70;127817;1091;104403;-72
2020/12/21 03:59:06;;;;;;;64.55;30.40;;;;;;;3.40;80.77;102178.19;127816;1091;104452;-73
2020/12/21 04:01:36;;;;;;;62.20;30.57;;;;;;;3.42;80.12;102182.72;127785;1092;104435;-72
2020/12/21 04:04:05;;;;;;;65.03;29.10;;;;;;;3.42;80.73;102182.72;127714;1091;104592;-73
2020/12/21 04:06:35;;;;;;;62.40;29.07;;;;;;;3.40;80.16;102185.97;127772;1091;104488;-73
2020/12/21 04:09:05;;;;;;;57.67;27.83;;;;;;;3.36;80.64;102189.04;127727;1091;104449;-74
2020/12/21 04:11:34;;;;;;;60.87;29.43;;;;;;;3.34;80.02;102195.78;127758;1092;104410;-72
2020/12/21 04:14:02;;;;;;;62.53;28.43;;;;;;;3.33;79.53;102194.85;127788;1092;104557;-72
2020/12/21 04:16:31;;;;;;;61.37;29.23;;;;;;;3.36;80.12;102191.64;127774;1091;104263;-72
2020/12/21 04:19:02;;;;;;;59.83;27.57;;;;;;;3.39;80.23;102194.52;127829;1091;104535;-72
2020/12/21 04:21:32;;;;;;;62.07;30.57;;;;;;;3.37;79.74;102191.78;127807;1091;104477;-73
2020/12/21 04:24:01;;;;;;;59.30;29.13;;;;;;;3.40;80.54;102196.35;127836;1092;104538;-74
2020/12/21 04:26:31;;;;;;;64.20;29.03;;;;;;;3.37;80.59;102189.19;127827;1091;104417;-74
2020/12/21 04:29:00;;;;;;;60.23;29.40;;;;;;;3.35;80.13;102187.20;127873;1092;104526;-73
2020/12/21 04:31:29;;;;;;;61.60;29.37;;;;;;;3.33;79.81;102189.66;127836;1092;104410;-73
2020/12/21 04:33:58;;;;;;;64.10;28.83;;;;;;;3.35;80.35;102190.73;127678;1091;104411;-75
2020/12/21 04:36:27;;;;;;;61.53;29.27;;;;;;;3.37;80.78;102178.80;127689;1091;104420;-74
2020/12/21 04:38:56;;;;;;;72.90;32.83;;;;;;;3.40;80.44;102192.06;127651;1092;104651;-74
2020/12/21 04:41:25;;;;;;;70.63;33.17;;;;;;;3.41;80.31;102182.58;127645;1091;104416;-73
2020/12/21 04:43:56;;;;;;;71.63;35.37;;;;;;;3.42;80.41;102184.41;127640;1092;104404;-73
2020/12/21 04:46:25;;;;;;;71.27;34.63;;;;;;;3.42;80.01;102187.01;127719;1092;104414;-72
2020/12/21 04:48:58;;;;;;;76.40;36.20;;;;;;;3.41;80.86;102185.17;127802;1091;104475;-72
2020/12/21 04:51:34;;;;;;;62.20;31.27;;;;;;;3.40;80.26;102186.87;127755;1091;104414;-73
2020/12/21 04:54:04;;;;;;;64.27;29.57;;;;;;;3.36;80.69;102186.45;127599;1091;104544;-73
2020/12/21 04:56:33;;;;;;;60.20;28.73;;;;;;;3.32;80.50;102189.52;127676;1091;104439;-71
2020/12/21 04:59:02;;;;;;;63.27;29.07;;;;;;;3.31;79.69;102193.81;127713;1091;104420;-72
2020/12/21 05:01:30;;;;;;;63.60;28.53;;;;;;;3.32;80.27;102185.27;127739;1091;104592;-71
2020/12/21 05:03:59;;;;;;;61.23;28.83;;;;;;;3.34;80.10;102188.00;127793;1091;104413;-73
2020/12/21 05:06:28;;;;;;;60.87;28.23;;;;;;;3.36;80.39;102191.64;127745;1092;104475;-71
2020/12/21 05:09:03;;;;;;;61.90;29.20;;;;;;;3.37;80.49;102185.69;127762;1092;104413;-73
2020/12/21 05:11:33;;;;;;;56.57;27.33;;;;;;;3.37;80.52;102185.69;127804;1091;104410;-72
2020/12/21 05:14:13;;;;;;;53.57;24.57;;;;;;;3.34;80.21;102188.00;127804;1091;104416;-73
2020/12/21 05:16:44;;;;;;;45.43;21.00;;;;;;;3.29;80.58;102192.77;127644;1091;104414;-73
2020/12/21 05:19:22;;;;;;;48.80;22.10;;;;;;;3.30;79.75;102194.56;127677;1091;104487;-71
2020/12/21 05:21:55;;;;;;;47.50;23.27;;;;;;;3.34;80.41;102193.19;127769;1092;104420;-73
2020/12/21 05:24:24;;;;;;;43.20;18.60;;;;;;;3.35;80.38;102198.52;127655;1091;104411;-74
2020/12/21 05:26:53;;;;;;;34.77;16.27;;;;;;;3.36;79.60;102199.42;127734;1093;104914;-73
2020/12/21 05:29:27;;;;;;;26.90;11.53;;;;;;;3.32;79.89;102206.02;127620;1091;104506;-74
2020/12/21 05:31:58;;;;;;;24.23;10.10;;;;;;;3.28;79.19;102208.20;127685;1092;104450;-74
2020/12/21 05:34:27;;;;;;;22.97;10.17;;;;;;;3.20;78.71;102199.70;127519;1091;104449;-73
2020/12/21 05:36:57;;;;;;;22.90;9.87;;;;;;;3.20;79.47;102205.79;127920;1091;104478;-73
2020/12/21 05:39:26;;;;;;;25.20;9.70;;;;;;;3.19;78.51;102209.14;127737;1092;104487;-72
2020/12/21 05:41:55;;;;;;;24.60;11.20;;;;;;;3.18;78.98;102199.56;127771;1091;104442;-73
2020/12/21 05:44:24;;;;;;;25.37;10.73;;;;;;;3.21;79.76;102204.09;127599;1092;104514;-75
2020/12/21 05:46:53;;;;;;;29.90;11.03;;;;;;;3.21;78.84;102201.50;127671;1092;104472;-73
2020/12/21 05:49:22;;;;;;;23.20;10.27;;;;;;;3.19;79.38;102203.95;127661;1091;104503;-73
2020/12/21 05:52:02;;;;;;;26.20;11.10;;;;;;;3.19;78.96;102203.05;127479;1091;104420;-76
2020/12/21 05:54:32;;;;;;;26.60;10.77;;;;;;;3.21;78.36;102199.84;127327;1091;104535;-77
2020/12/21 05:57:01;;;;;;;27.43;11.00;;;;;;;3.27;78.94;102206.36;127449;1092;104429;-76
2020/12/21 05:59:31;;;;;;;27.87;11.53;;;;;;;3.29;78.81;102199.62;127618;1092;104410;-75
2020/12/21 06:02:00;;;;;;;27.93;11.77;;;;;;;3.29;79.04;102209.99;127548;1091;104426;-75
2020/12/21 06:04:38;;;;;;;29.47;14.27;;;;;;;3.30;79.11;102204.05;127618;1092;104439;-75
2020/12/21 06:07:12;;;;;;;30.40;12.73;;;;;;;3.33;78.77;102207.83;127873;1091;104429;-75
2020/12/21 06:09:49;;;;;;;29.23;13.38;;;;;;;3.33;79.30;102213.02;127445;1091;104433;-74
2020/12/21 06:12:21;;;;;;;31.20;12.77;;;;;;;3.36;78.95;102215.89;127501;1092;104481;-74
2020/12/21 06:14:54;;;;;;;28.63;13.53;;;;;;;3.36;79.00;102212.39;127565;1091;104500;-77
2020/12/21 06:17:24;;;;;;;28.47;11.47;;;;;;;3.34;79.06;102217.45;127447;1092;104474;-76
2020/12/21 06:20:10;;;;;;;28.73;11.93;;;;;;;3.32;78.15;102212.87;127559;1092;104438;-74
2020/12/21 06:22:39;;;;;;;28.40;12.37;;;;;;;3.33;78.98;102215.61;127352;1092;104587;-78
2020/12/21 06:25:08;;;;;;;29.40;12.30;;;;;;;3.34;79.14;102219.14;127476;1091;104445;-75
2020/12/21 06:27:42;;;;;;;25.40;11.40;;;;;;;3.37;78.96;102229.80;127502;1092;104429;-75
2020/12/21 06:30:13;;;;;;;27.20;12.43;;;;;;;3.40;78.42;102225.80;127520;1091;104410;-73
2020/12/21 06:32:42;;;;;;;27.77;11.87;;;;;;;3.41;78.60;102229.30;127355;1091;104468;-77
2020/12/21 06:35:20;;;;;;;27.23;11.03;;;;;;;3.43;78.79;102230.37;127419;1092;104403;-77
2020/12/21 06:38:00;;;;;;;29.13;12.73;;;;;;;3.40;79.18;102224.90;127410;1091;104426;-76
2020/12/21 06:40:33;;;;;;;28.47;12.30;;;;;;;3.39;79.22;102226.55;127347;1092;104510;-76
2020/12/21 06:43:14;;;;;;;26.10;10.95;;;;;;;3.41;78.23;102222.44;128425;1091;102136;-76
2020/12/21 06:45:43;;;;;;;23.33;10.27;;;;;;;3.38;78.27;102226.41;127346;1091;104478;-76
2020/12/21 06:48:22;;;;;;;29.80;12.13;;;;;;;3.40;78.52;102224.90;127293;1092;104525;-78
2020/12/21 06:50:54;;;;;;;25.23;11.87;;;;;;;3.45;78.96;102221.03;127371;1092;104461;-79
2020/12/21 06:53:23;;;;;;;27.10;11.73;;;;;;;3.47;78.81;102222.07;127368;1092;104644;-74
2020/12/21 06:55:52;;;;;;;30.60;12.17;;;;;;;3.53;78.35;102224.33;127355;1091;104487;-77
2020/12/21 06:58:21;;;;;;;28.90;11.57;;;;;;;3.60;78.77;102232.82;127216;1092;104736;-77
2020/12/21 07:00:54;;;;;;;28.30;10.47;;;;;;;3.65;78.33;102227.15;127306;1091;104566;-77
2020/12/21 07:03:24;;;;;;;26.70;11.53;;;;;;;3.65;78.42;102224.55;127395;1091;104484;-75
2020/12/21 07:05:58;;;;;;;28.27;11.37;;;;;;;3.62;78.21;102224.27;127443;1091;105145;-75
2020/12/21 07:08:27;;;;;;;27.63;11.87;;;;;;;3.62;78.10;102234.66;127585;1091;104530;-75
2020/12/21 07:11:00;;;;;;;25.90;11.00;;;;;;;3.68;78.51;102230.02;127610;1091;104513;-76
2020/12/21 07:13:33;;;;;;;22.97;10.20;;;;;;;3.70;77.89;102231.06;127453;1092;104513;-76
2020/12/21 07:16:02;;;;;;;25.03;10.23;;;;;;;3.69;78.03;102229.23;127324;1092;104557;-78
2020/12/21 07:18:32;;;;;;;26.07;10.80;;;;;;;3.71;77.29;102232.87;127343;1091;104563;-76
2020/12/21 07:21:05;;;;;;;30.83;11.90;;;;;;;3.72;77.46;102230.41;127421;1091;104414;-80
2020/12/21 07:23:34;;;;;;;27.17;11.83;;;;;;;3.74;78.15;102228.89;127616;1093;104545;-75
2020/12/21 07:26:07;;;;;;;27.63;12.10;;;;;;;3.78;77.56;102235.26;127504;1092;104742;-78
2020/12/21 07:28:40;;;;;;;29.57;12.03;;;;;;;3.86;78.47;102233.36;127666;1092;104407;-73
2020/12/21 07:31:10;;;;;;;27.40;11.20;;;;;;;3.89;77.80;102231.94;127442;1092;104613;-77
2020/12/21 07:33:54;;;;;;;24.67;10.70;;;;;;;3.92;77.46;102228.72;127828;1092;104535;-76
2020/12/21 07:36:28;;;;;;;23.70;10.03;;;;;;;3.93;76.78;102231.45;127416;1092;104560;-74
2020/12/21 07:39:10;;;;;;;25.00;10.33;;;;;;;3.91;77.46;102235.61;127529;1091;104436;-76
2020/12/21 07:41:44;;;;;;;27.80;12.57;;;;;;;3.88;77.64;102247.38;127563;1092;104435;-73
2020/12/21 07:44:21;;;;;;;27.83;11.43;;;;;;;3.87;77.12;102238.69;127864;1092;104419;-74
2020/12/21 07:47:02;;;;;;;25.93;10.93;;;;;;;3.88;77.09;102232.73;127594;1091;104436;-77
2020/12/21 07:49:34;;;;;;;26.07;9.77;;;;;;;3.89;77.00;102241.42;127512;1092;104435;-74
2020/12/21 07:52:05;;;;;;;23.37;9.93;;;;;;;3.88;77.20;102239.59;127464;1092;104440;-73
2020/12/21 07:54:38;;;;;;;25.07;11.30;;;;;;;3.86;77.41;102239.45;127582;1091;104570;-74
2020/12/21 07:57:09;;;;;;;23.97;10.67;;;;;;;3.89;77.42;102242.33;127512;1091;104420;-73
2020/12/21 07:59:39;;;;;;;22.23;9.97;;;;;;;3.94;76.91;102246.28;127528;1091;104433;-74
2020/12/21 08:02:09;;;;;;;25.17;10.60;;;;;;;3.98;76.94;102244.86;127409;1092;104487;-73
2020/12/21 08:04:38;;;;;;;30.20;11.17;;;;;;;4.07;77.66;102244.78;127521;1091;104416;-75
2020/12/21 08:07:08;;;;;;;26.57;10.57;;;;;;;4.18;77.17;102243.16;127304;1092;104554;-74
2020/12/21 08:09:38;;;;;;;26.10;10.63;;;;;;;4.25;77.34;102246.41;127432;1093;104442;-75
2020/12/21 08:12:10;;;;;;;27.67;11.20;;;;;;;4.28;76.27;102241.47;127620;1091;104497;-74
2020/12/21 08:15:01;;;;;;;25.40;9.93;;;;;;;4.34;76.78;102237.63;126765;1095;104506;-76
2020/12/21 08:17:32;;;;;;;29.63;12.23;;;;;;;4.32;76.96;102232.28;126771;1095;104762;-75
2020/12/21 08:20:07;;;;;;;26.77;9.80;;;;;;;4.28;76.16;102231.08;127090;1095;104552;-73
2020/12/21 08:22:38;;;;;;;23.50;10.03;;;;;;;4.21;76.72;102222.64;126949;1095;104494;-76
2020/12/21 08:25:13;;;;;;;23.97;10.13;;;;;;;4.22;76.23;102222.73;126977;1095;104504;-75
2020/12/21 08:27:51;;;;;;;23.03;10.33;;;;;;;4.28;76.33;102219.78;126920;1095;104564;-73
2020/12/21 08:30:23;;;;;;;26.40;11.67;;;;;;;4.32;75.94;102221.89;126891;1095;104423;-77
2020/12/21 08:32:55;;;;;;;27.43;11.87;;;;;;;4.44;76.96;102220.37;126787;1095;104641;-74
2020/12/21 08:35:26;;;;;;;24.80;11.23;;;;;;;4.55;76.93;102220.38;126826;1095;105307;-76
2020/12/21 08:38:06;;;;;;;29.43;11.43;;;;;;;4.60;76.65;102214.82;126866;1095;104509;-75
2020/12/21 08:40:35;;;;;;;25.10;11.10;;;;;;;4.67;76.35;102209.39;127252;1095;104675;-73
2020/12/21 08:43:04;;;;;;;29.10;11.67;;;;;;;4.78;76.53;102204.19;126904;1095;104538;-73
2020/12/21 08:45:38;;;;;;;29.13;12.27;;;;;;;4.84;76.24;102207.31;127035;1095;104647;-74
2020/12/21 08:48:08;;;;;;;24.50;11.63;;;;;;;4.82;75.88;102207.19;126920;1095;104483;-72
2020/12/21 08:50:38;;;;;;;27.23;12.27;;;;;;;4.81;76.13;102205.34;126975;1095;104654;-74
2020/12/21 08:53:07;;;;;;;24.83;12.50;;;;;;;4.83;76.11;102208.08;127221;1091;104564;-76
2020/12/21 08:55:36;;;;;;;26.13;11.73;;;;;;;4.81;75.85;102200.14;127623;1091;104548;-72
2020/12/21 08:58:09;;;;;;;28.60;12.53;;;;;;;4.81;75.62;102199.25;127534;1092;104432;-79
2020/12/21 09:00:38;;;;;;;29.80;12.80;;;;;;;4.84;75.93;102194.31;127530;1091;104458;-75
2020/12/21 09:03:07;;;;;;;28.53;13.50;;;;;;;4.93;75.95;102192.50;127479;1091;104445;-75
2020/12/21 09:05:39;;;;;;;28.30;13.10;;;;;;;5.07;76.35;102192.77;127584;1092;104563;-74
2020/12/21 09:08:08;;;;;;;27.60;13.47;;;;;;;5.18;75.99;102190.28;127442;1091;104442;-76
2020/12/21 09:10:40;;;;;;;27.83;12.93;;;;;;;5.25;75.68;102189.13;127566;1091;104432;-74
2020/12/21 09:13:12;;;;;;;27.80;12.70;;;;;;;5.27;75.87;102184.05;127499;1091;104528;-73
2020/12/21 09:15:41;;;;;;;23.40;10.87;;;;;;;5.27;75.95;102179.75;127542;1091;104560;-75
2020/12/21 09:18:10;;;;;;;23.77;10.17;;;;;;;5.34;75.78;102179.45;127610;1092;104898;-75
2020/12/21 09:20:39;;;;;;;23.20;10.47;;;;;;;5.35;75.64;102176.08;127604;1091;104459;-74
2020/12/21 09:23:08;;;;;;;21.67;10.07;;;;;;;5.37;75.41;102164.09;127602;1091;104541;-73
2020/12/21 09:25:37;;;;;;;21.97;10.20;;;;;;;5.38;75.17;102173.73;127574;1091;104541;-72
2020/12/21 09:28:06;;;;;;;21.47;9.13;;;;;;;5.40;75.30;102169.56;127625;1092;104570;-76
2020/12/21 09:30:35;;;;;;;24.90;11.27;;;;;;;5.39;75.11;102162.55;127492;1091;104532;-73
2020/12/21 09:33:04;;;;;;;25.40;11.97;;;;;;;5.42;75.54;102160.97;127306;1093;104539;-77
2020/12/21 09:35:33;;;;;;;26.53;12.77;;;;;;;5.45;75.31;102163.83;127477;1091;104496;-75
2020/12/21 09:38:06;;;;;;;26.30;12.93;;;;;;;5.51;75.45;102165.23;127621;1091;104423;-75
2020/12/21 09:40:35;;;;;;;26.87;12.27;;;;;;;5.54;75.27;102155.08;127580;1091;104478;-73
2020/12/21 09:43:05;;;;;;;27.97;12.00;;;;;;;5.53;75.10;102144.54;127721;1091;104563;-75
2020/12/21 09:45:36;;;;;;;25.67;10.50;;;;;;;5.48;74.70;102156.28;127766;1091;104513;-74
2020/12/21 09:48:10;;;;;;;28.97;12.40;;;;;;;5.49;74.98;102155.50;127750;1092;104532;-72
2020/12/21 09:50:38;;;;;;;26.97;12.07;;;;;;;5.42;74.18;102154.06;127543;1091;104484;-72
2020/12/21 09:53:08;;;;;;;27.90;13.53;;;;;;;5.38;74.55;102159.82;127517;1093;104403;-73
2020/12/21 09:55:41;;;;;;;28.70;13.63;;;;;;;5.37;74.58;102155.39;127530;1091;104560;-75
2020/12/21 09:58:14;;;;;;;30.40;14.10;;;;;;;5.40;74.99;102153.94;127594;1092;104406;-74
2020/12/21 10:00:43;;;;;;;26.27;12.27;;;;;;;5.39;74.29;102149.53;127728;1092;104423;-74
2020/12/21 10:03:19;;;;;;;29.83;13.90;;;;;;;5.34;74.82;102148.22;127477;1091;104475;-75
2020/12/21 10:05:55;;;;;;;29.43;13.87;;;;;;;5.36;74.81;102146.67;127521;1091;104698;-74
2020/12/21 10:08:27;;;;;;;28.00;13.10;;;;;;;5.40;74.74;102146.13;127604;1091;104436;-77
2020/12/21 10:10:56;;;;;;;25.60;11.97;;;;;;;5.43;74.30;102141.98;127505;1092;103273;-72
2020/12/21 10:13:25;;;;;;;31.17;13.57;;;;;;;5.42;74.19;102135.84;127464;1093;104442;-72
2020/12/21 10:15:54;;;;;;;31.50;14.83;;;;;;;5.46;74.36;102140.53;127622;1092;104414;-73
2020/12/21 10:18:24;;;;;;;31.97;14.10;;;;;;;5.56;74.48;102131.77;127540;1091;104522;-72
2020/12/21 10:20:53;;;;;;;30.57;14.50;;;;;;;5.62;74.61;102132.27;127683;1091;104433;-75
2020/12/21 10:23:22;;;;;;;31.07;14.60;;;;;;;5.65;74.32;102131.63;127525;1092;104691;-75
2020/12/21 10:25:51;;;;;;;30.90;14.93;;;;;;;5.61;74.14;102130.48;128812;1092;102562;-76
2020/12/21 10:28:21;;;;;;;28.70;14.05;;;;;;;5.62;74.22;102129.67;127522;1091;104506;-74
2020/12/21 10:30:50;;;;;;;31.07;15.03;;;;;;;5.63;74.29;102123.69;128219;1092;103009;-73
2020/12/21 10:33:19;;;;;;;30.40;14.40;;;;;;;5.61;74.23;102125.27;127337;1092;104601;-74
2020/12/21 10:35:48;;;;;;;29.07;13.90;;;;;;;5.58;73.90;102123.31;127350;1092;104445;-73
2020/12/21 10:38:18;;;;;;;32.87;14.63;;;;;;;5.54;73.98;102118.63;127250;1092;105032;-73
2020/12/21 10:40:50;;;;;;;30.77;14.77;;;;;;;5.57;73.96;102115.38;127469;1092;104860;-75
2020/12/21 10:43:22;;;;;;;30.70;14.97;;;;;;;5.60;74.33;102118.23;127253;1093;104605;-74
2020/12/21 10:45:51;;;;;;;31.07;15.10;;;;;;;5.70;74.42;102109.45;127465;1091;104717;-73
2020/12/21 10:48:20;;;;;;;30.67;13.77;;;;;;;5.80;74.36;102112.03;127261;1092;104702;-75
2020/12/21 10:50:51;;;;;;;29.50;12.73;;;;;;;5.85;74.19;102107.20;126975;1093;104555;-74
2020/12/21 10:53:21;;;;;;;28.93;13.80;;;;;;;5.84;73.81;102113.18;127309;1091;104442;-78
2020/12/21 10:55:50;;;;;;;29.80;14.33;;;;;;;5.82;74.02;102101.73;127152;1091;104685;-77
2020/12/21 10:58:21;;;;;;;33.15;14.50;;;;;;;5.79;73.72;102096.28;128397;1092;103257;-73
2020/12/21 11:00:50;;;;;;;30.00;13.83;;;;;;;5.81;73.69;102097.30;127349;1091;104410;-74
2020/12/21 11:03:20;;;;;;;32.20;15.30;;;;;;;5.84;73.83;102092.34;127247;1092;104439;-75
2020/12/21 11:05:49;;;;;;;32.93;15.20;;;;;;;5.90;73.99;102091.13;127202;1091;104554;-74
2020/12/21 11:08:18;;;;;;;29.53;13.70;;;;;;;5.97;73.84;102089.05;127249;1092;104993;-73
2020/12/21 11:10:49;;;;;;;31.00;14.23;;;;;;;5.97;73.61;102087.37;127299;1091;104561;-74
2020/12/21 11:13:18;;;;;;;32.70;15.57;;;;;;;5.99;73.60;102083.18;127120;1092;104497;-76
2020/12/21 11:15:47;;;;;;;31.43;14.30;;;;;;;6.02;73.79;102078.21;127242;1092;104574;-76